Scotch Plains, New Jersey
Current Conditions -  °F | °C
As of 8:15 PM on Saturday 22 Nov 2014 (Local Time) from KLDJ Reporting Station
Overcast Overcast  
Wind Chill: 43°   Ceiling: 6500
Heat Index: 47°   Visibility: 10mi
Dew Point: 21°   Wind: 8mph
Humidity: 36%   Direction: 270°W
Pressure: 30.26"   Gusts: 16mph
Location:  40.65°N, 74.4°W
Report Text: KLDJ 230115Z AUTO 27007G14KT 10SM OVC065 08/M06 A3026 RMK AO2 T00831060
Loading
Personal Weather Stations






























Interactive Weather Map New forecast layout! Learn more

10-Day Weather Forecast

Advertisements
Track Severe Weather on mobile